WAT1372 PANC-EBLG
Flight info
| Callsign | WAT1372 |
|---|---|
| Flight time | N/A |
| Altitude | 27000 |
| Route | ANCH1 ENA DCT BGQ Q43 CAWIN/N0497F320 Q43 FAI/N0499F310 J120 FYU J167 POTAT DCT 70N130W/N0497F330 70N120W 70N100W 70N080W/M086F330 DCT ADSAM DCT 69N050W/M086F350 67N040W 65N030W 62N020W DCT BALIX/N0493F350 DCT NINEX DCT STN DCT GOW DCT ELBUS UL612 HON L15 BIG Q70 VABIK/N0469F230 Q70 KOK |
| Aircraft | B748/H-SDE3FGHIM1M2RWXY/LB1 |
Departure
| Time | 2026-05-04 10:54 |
|---|---|
| Airport | Ted Stevens Anchorage International Airport (PANC) |
Arrival
| Time | N/A |
|---|---|
| Airport | Liège Airport (EBLG) |
| Time | Latitude | Longitude | Altitude | Speed | Heading |
|---|---|---|---|---|---|
| 2026-05-04 10:45 | 61.17126 | -150.01176 | 166 ft | 19 kts | 270° |
| 2026-05-04 10:46 | 61.17125 | -150.01440 | 166 ft | 17 kts | 270° |
| 2026-05-04 10:46 | 61.17125 | -150.01689 | 166 ft | 18 kts | 270° |
| 2026-05-04 10:46 | 61.17126 | -150.01982 | 166 ft | 22 kts | 270° |
| 2026-05-04 10:46 | 61.17125 | -150.02353 | 166 ft | 28 kts | 270° |
| 2026-05-04 10:47 | 61.17124 | -150.02805 | 166 ft | 34 kts | 269° |
| 2026-05-04 10:47 | 61.17122 | -150.03241 | 166 ft | 21 kts | 255° |
| 2026-05-04 10:47 | 61.17033 | -150.03450 | 166 ft | 18 kts | 214° |
| 2026-05-04 10:47 | 61.16912 | -150.03499 | 166 ft | 17 kts | 168° |
| 2026-05-04 10:49 | 61.16785 | -150.01360 | 166 ft | 30 kts | 90° |
| 2026-05-04 10:49 | 61.16786 | -150.00983 | 166 ft | 15 kts | 90° |
| 2026-05-04 10:50 | 61.16814 | -150.00813 | 166 ft | 11 kts | 26° |
| 2026-05-04 10:51 | 61.16976 | -150.00618 | 166 ft | 4 kts | 89° |
| 2026-05-04 10:52 | 61.16976 | -150.00176 | 166 ft | 62 kts | 90° |
| 2026-05-04 10:52 | 61.16977 | -149.98898 | 166 ft | 115 kts | 90° |
| 2026-05-04 10:52 | 61.16977 | -149.96883 | 166 ft | 165 kts | 90° |
| 2026-05-04 10:54 | 61.12243 | -149.86337 | 2287 ft | 239 kts | 218° |
| 2026-05-04 10:54 | 61.11090 | -149.88902 | 2740 ft | 251 kts | 241° |
| 2026-05-04 10:56 | 61.04554 | -150.11316 | 6527 ft | 275 kts | 225° |
| 2026-05-04 10:56 | 61.03205 | -150.14121 | 7011 ft | 278 kts | 223° |
| 2026-05-04 10:56 | 61.01785 | -150.16846 | 7510 ft | 282 kts | 221° |
| 2026-05-04 10:57 | 61.00300 | -150.19527 | 8048 ft | 284 kts | 219° |
| 2026-05-04 10:57 | 60.98805 | -150.22124 | 8593 ft | 285 kts | 218° |
| 2026-05-04 10:57 | 60.97271 | -150.24718 | 9149 ft | 286 kts | 218° |
| 2026-05-04 10:57 | 60.95725 | -150.27287 | 9675 ft | 288 kts | 217° |
| 2026-05-04 10:58 | 60.94162 | -150.29848 | 10232 ft | 288 kts | 217° |
| 2026-05-04 10:58 | 60.92593 | -150.32387 | 10771 ft | 289 kts | 216° |
| 2026-05-04 10:58 | 60.91027 | -150.34892 | 11273 ft | 291 kts | 216° |
| 2026-05-04 10:58 | 60.89407 | -150.37448 | 11754 ft | 294 kts | 216° |
| 2026-05-04 10:59 | 60.87772 | -150.39987 | 12201 ft | 299 kts | 215° |
| 2026-05-04 10:59 | 60.86073 | -150.42523 | 12572 ft | 306 kts | 214° |
| 2026-05-04 10:59 | 60.84327 | -150.44975 | 12969 ft | 310 kts | 213° |
| 2026-05-04 10:59 | 60.82520 | -150.47363 | 13542 ft | 308 kts | 211° |
| 2026-05-04 11:00 | 60.80705 | -150.49634 | 14034 ft | 309 kts | 211° |
| 2026-05-04 11:01 | 60.67844 | -150.65828 | 17199 ft | 314 kts | 212° |
| 2026-05-04 11:02 | 60.66035 | -150.68245 | 17615 ft | 315 kts | 212° |
| 2026-05-04 11:02 | 60.64195 | -150.70691 | 18027 ft | 316 kts | 212° |
| 2026-05-04 11:05 | 60.62451 | -151.21648 | 22976 ft | 393 kts | 309° |
| 2026-05-04 11:06 | 60.64653 | -151.25098 | 23241 ft | 409 kts | 324° |
| 2026-05-04 11:06 | 60.67269 | -151.27416 | 23490 ft | 423 kts | 339° |
| 2026-05-04 11:06 | 60.70208 | -151.28458 | 23726 ft | 435 kts | 354° |
| 2026-05-04 11:06 | 60.73260 | -151.28067 | 23965 ft | 445 kts | 9° |
| 2026-05-04 11:08 | 60.86535 | -150.95807 | 25862 ft | 458 kts | 59° |
| 2026-05-04 11:10 | 61.04258 | -150.65942 | 27808 ft | 483 kts | 32° |
| 2026-05-04 11:12 | 61.24622 | -150.39363 | 29339 ft | 516 kts | 30° |
| 2026-05-04 11:12 | 61.27707 | -150.35356 | 29385 ft | 527 kts | 30° |
| 2026-05-04 11:12 | 61.30870 | -150.31226 | 29412 ft | 540 kts | 31° |
| 2026-05-04 11:12 | 61.34058 | -150.27065 | 29413 ft | 554 kts | 31° |
| 2026-05-04 11:13 | 61.40675 | -150.18356 | 29265 ft | 566 kts | 31° |
| 2026-05-04 11:13 | 61.47304 | -150.09604 | 29156 ft | 565 kts | 31° |
| 2026-05-04 11:14 | 61.53927 | -150.00809 | 29086 ft | 564 kts | 31° |
| 2026-05-04 11:16 | 61.83450 | -149.82436 | 29099 ft | 556 kts | 10° |
| 2026-05-04 11:16 | 61.90934 | -149.78343 | 29095 ft | 556 kts | 10° |
| 2026-05-04 11:17 | 61.98433 | -149.74200 | 29072 ft | 556 kts | 10° |
| 2026-05-04 11:19 | 62.24636 | -149.59541 | 28680 ft | 556 kts | 10° |
| 2026-05-04 11:19 | 62.28389 | -149.57416 | 28536 ft | 557 kts | 10° |
| 2026-05-04 11:19 | 62.32124 | -149.55310 | 28428 ft | 555 kts | 10° |
| 2026-05-04 11:19 | 62.35813 | -149.53215 | 28356 ft | 554 kts | 10° |
| 2026-05-04 11:20 | 62.43248 | -149.48973 | 28271 ft | 553 kts | 10° |
| 2026-05-04 11:20 | 62.50690 | -149.44707 | 28291 ft | 551 kts | 10° |
| 2026-05-04 11:22 | 62.76673 | -149.29654 | 29071 ft | 555 kts | 11° |
| 2026-05-04 11:22 | 62.80418 | -149.27457 | 29080 ft | 555 kts | 11° |
| 2026-05-04 11:23 | 62.87837 | -149.23106 | 29040 ft | 555 kts | 10° |
| 2026-05-04 11:24 | 63.10165 | -149.09859 | 28920 ft | 552 kts | 10° |
| 2026-05-04 11:25 | 63.13860 | -149.07645 | 28929 ft | 552 kts | 10° |
| 2026-05-04 11:25 | 63.21299 | -149.03206 | 28979 ft | 553 kts | 10° |
| 2026-05-04 11:27 | 63.54726 | -148.82703 | 28974 ft | 554 kts | 9° |
| 2026-05-04 11:28 | 63.62127 | -148.78130 | 28977 ft | 553 kts | 9° |
| 2026-05-04 11:28 | 63.69523 | -148.73509 | 28999 ft | 551 kts | 9° |
| 2026-05-04 11:29 | 63.76890 | -148.68900 | 29034 ft | 551 kts | 9° |
| 2026-05-04 11:29 | 63.84312 | -148.64221 | 29058 ft | 553 kts | 9° |
| 2026-05-04 11:33 | 64.35858 | -148.31003 | 29079 ft | 551 kts | 10° |
| 2026-05-04 11:33 | 64.43256 | -148.26117 | 29085 ft | 551 kts | 10° |
| 2026-05-04 11:34 | 64.50591 | -148.21254 | 29084 ft | 551 kts | 10° |
| 2026-05-04 11:34 | 64.57962 | -148.16338 | 29076 ft | 551 kts | 10° |
| 2026-05-04 11:35 | 64.65311 | -148.11401 | 29069 ft | 551 kts | 9° |
| 2026-05-04 11:35 | 64.72698 | -148.06503 | 29067 ft | 552 kts | 10° |
| 2026-05-04 11:36 | 64.80065 | -148.00969 | 29042 ft | 559 kts | 19° |
| 2026-05-04 11:36 | 64.86833 | -147.91658 | 29068 ft | 566 kts | 27° |
| 2026-05-04 11:37 | 64.93547 | -147.82092 | 29064 ft | 567 kts | 27° |
| 2026-05-04 11:37 | 65.00271 | -147.72418 | 29050 ft | 567 kts | 26° |
| 2026-05-04 11:38 | 65.07002 | -147.62682 | 29036 ft | 567 kts | 26° |
| 2026-05-04 11:38 | 65.13750 | -147.52844 | 28984 ft | 567 kts | 26° |
| 2026-05-04 11:39 | 65.20471 | -147.43016 | 28924 ft | 567 kts | 26° |
| 2026-05-04 11:41 | 65.43726 | -147.08435 | 28899 ft | 570 kts | 27° |
| 2026-05-04 11:41 | 65.50430 | -146.98305 | 28748 ft | 570 kts | 26° |
| 2026-05-04 11:42 | 65.57136 | -146.88150 | 28640 ft | 568 kts | 26° |
| 2026-05-04 11:42 | 65.63783 | -146.78003 | 28736 ft | 565 kts | 26° |
| 2026-05-04 11:43 | 65.70451 | -146.67764 | 28906 ft | 567 kts | 26° |
| 2026-05-04 11:43 | 65.77121 | -146.57461 | 29012 ft | 568 kts | 26° |
| 2026-05-04 11:44 | 65.83767 | -146.47113 | 29072 ft | 568 kts | 26° |
| 2026-05-04 11:44 | 65.90409 | -146.36679 | 29094 ft | 567 kts | 26° |
| 2026-05-04 11:45 | 65.97070 | -146.26288 | 29077 ft | 566 kts | 27° |
| 2026-05-04 11:45 | 66.03678 | -146.15801 | 29100 ft | 565 kts | 27° |
| 2026-05-04 11:46 | 66.10300 | -146.05240 | 29125 ft | 565 kts | 26° |
| 2026-05-04 11:46 | 66.16890 | -145.94665 | 29132 ft | 565 kts | 26° |
| 2026-05-04 11:47 | 66.23461 | -145.84070 | 29149 ft | 565 kts | 26° |
| 2026-05-04 11:47 | 66.30031 | -145.73402 | 29165 ft | 565 kts | 26° |
| 2026-05-04 11:48 | 66.36605 | -145.62651 | 29180 ft | 564 kts | 26° |
| 2026-05-04 11:48 | 66.43157 | -145.51860 | 29187 ft | 563 kts | 27° |
| 2026-05-04 11:49 | 66.49683 | -145.41162 | 29188 ft | 561 kts | 27° |
| 2026-05-04 11:49 | 66.56142 | -145.30066 | 29160 ft | 562 kts | 33° |
| 2026-05-04 11:49 | 66.58688 | -145.24310 | 29137 ft | 567 kts | 44° |
| 2026-05-04 11:50 | 66.61294 | -145.16794 | 29162 ft | 567 kts | 46° |
| 2026-05-04 11:50 | 66.66464 | -145.01968 | 29166 ft | 565 kts | 45° |
| 2026-05-04 11:51 | 66.71613 | -144.87030 | 29167 ft | 562 kts | 46° |
| 2026-05-04 11:51 | 66.76753 | -144.72003 | 29168 ft | 560 kts | 46° |
| 2026-05-04 11:52 | 66.81846 | -144.57039 | 29162 ft | 559 kts | 46° |
| 2026-05-04 11:52 | 66.86920 | -144.41988 | 29164 ft | 558 kts | 46° |
| 2026-05-04 11:53 | 66.91978 | -144.26926 | 29159 ft | 557 kts | 47° |
| 2026-05-04 11:53 | 66.96817 | -144.12378 | 29162 ft | 556 kts | 47° |
| 2026-05-04 11:55 | 67.16597 | -143.51872 | 29099 ft | 548 kts | 47° |
| 2026-05-04 11:56 | 67.21445 | -143.36787 | 29094 ft | 545 kts | 47° |
| 2026-05-04 11:56 | 67.26295 | -143.21634 | 29077 ft | 543 kts | 48° |
| 2026-05-04 11:57 | 67.31081 | -143.06522 | 29077 ft | 543 kts | 48° |
| 2026-05-04 11:57 | 67.35857 | -142.91327 | 29072 ft | 542 kts | 48° |
| 2026-05-04 11:58 | 67.40610 | -142.76161 | 29077 ft | 542 kts | 48° |
| 2026-05-04 11:58 | 67.45327 | -142.60934 | 29079 ft | 541 kts | 48° |
| 2026-05-04 11:59 | 67.50040 | -142.45662 | 29079 ft | 539 kts | 48° |
| 2026-05-04 11:59 | 67.54739 | -142.30319 | 29084 ft | 537 kts | 49° |
| 2026-05-04 12:00 | 67.59384 | -142.15016 | 29087 ft | 533 kts | 49° |
| 2026-05-04 12:00 | 67.63980 | -141.99806 | 29114 ft | 531 kts | 50° |
| 2026-05-04 12:01 | 67.68533 | -141.84621 | 29136 ft | 529 kts | 49° |
| 2026-05-04 12:02 | 67.84336 | -141.31036 | 29123 ft | 529 kts | 50° |
| 2026-05-04 12:03 | 67.88844 | -141.15543 | 29117 ft | 530 kts | 50° |
| 2026-05-04 12:03 | 67.93283 | -140.99861 | 29120 ft | 532 kts | 53° |
| 2026-05-04 12:04 | 67.97295 | -140.83237 | 29151 ft | 534 kts | 54° |
| 2026-05-04 12:04 | 68.01297 | -140.66547 | 29173 ft | 533 kts | 55° |
| 2026-05-04 12:05 | 68.05276 | -140.49765 | 29194 ft | 532 kts | 55° |
| 2026-05-04 12:05 | 68.09207 | -140.33026 | 29210 ft | 530 kts | 56° |
| 2026-05-04 12:06 | 68.13102 | -140.16350 | 29212 ft | 524 kts | 57° |
| 2026-05-04 12:06 | 68.16939 | -139.99739 | 29189 ft | 521 kts | 57° |
| 2026-05-04 12:07 | 68.20758 | -139.83026 | 29166 ft | 523 kts | 57° |
| 2026-05-04 12:07 | 68.24570 | -139.66287 | 29154 ft | 523 kts | 56° |
| 2026-05-04 12:08 | 68.28330 | -139.49622 | 29152 ft | 522 kts | 56° |
| 2026-05-04 12:08 | 68.32101 | -139.32819 | 29159 ft | 521 kts | 57° |
| 2026-05-04 12:09 | 68.35861 | -139.15898 | 29165 ft | 520 kts | 57° |
| 2026-05-04 12:09 | 68.39559 | -138.99133 | 29157 ft | 518 kts | 57° |
| 2026-05-04 12:10 | 68.43237 | -138.82312 | 29152 ft | 516 kts | 57° |
| 2026-05-04 12:10 | 68.46892 | -138.65497 | 29138 ft | 516 kts | 57° |
| 2026-05-04 12:11 | 68.50532 | -138.48583 | 29089 ft | 517 kts | 57° |
| 2026-05-04 12:11 | 68.54175 | -138.31580 | 28948 ft | 517 kts | 58° |
| 2026-05-04 12:12 | 68.57768 | -138.14636 | 28906 ft | 515 kts | 58° |
| 2026-05-04 12:12 | 68.61337 | -137.97691 | 28996 ft | 515 kts | 58° |
| 2026-05-04 12:14 | 68.75517 | -137.28937 | 29155 ft | 515 kts | 59° |
| 2026-05-04 12:15 | 68.79024 | -137.11595 | 29160 ft | 514 kts | 59° |
| 2026-05-04 12:15 | 68.82496 | -136.94267 | 29158 ft | 514 kts | 59° |
| 2026-05-04 12:16 | 68.85928 | -136.77010 | 29156 ft | 513 kts | 59° |
| 2026-05-04 12:16 | 68.89356 | -136.59593 | 29175 ft | 514 kts | 59° |
| 2026-05-04 12:17 | 68.92766 | -136.42108 | 29202 ft | 519 kts | 58° |
| 2026-05-04 12:17 | 68.96236 | -136.24263 | 29192 ft | 521 kts | 59° |
| 2026-05-04 12:18 | 68.99658 | -136.06494 | 29182 ft | 520 kts | 59° |
| 2026-05-04 12:18 | 69.03056 | -135.88718 | 29181 ft | 519 kts | 59° |
| 2026-05-04 12:19 | 69.06451 | -135.70763 | 29179 ft | 518 kts | 59° |
| 2026-05-04 12:19 | 69.09795 | -135.52919 | 29170 ft | 517 kts | 59° |
| 2026-05-04 12:20 | 69.13121 | -135.35014 | 29164 ft | 515 kts | 59° |
| 2026-05-04 12:20 | 69.16418 | -135.17123 | 29166 ft | 514 kts | 60° |
| 2026-05-04 12:21 | 69.19663 | -134.99315 | 29170 ft | 513 kts | 60° |
| 2026-05-04 12:21 | 69.22914 | -134.81363 | 29171 ft | 513 kts | 60° |
| 2026-05-04 12:22 | 69.26141 | -134.63394 | 29171 ft | 512 kts | 60° |
| 2026-05-04 12:22 | 69.29346 | -134.45348 | 29173 ft | 512 kts | 60° |
| 2026-05-04 12:23 | 69.32516 | -134.27359 | 29176 ft | 511 kts | 62° |
| 2026-05-04 12:23 | 69.35680 | -134.09270 | 29190 ft | 510 kts | 62° |
| 2026-05-04 12:24 | 69.38805 | -133.91211 | 29200 ft | 509 kts | 62° |
| 2026-05-04 12:24 | 69.41910 | -133.73120 | 29210 ft | 508 kts | 62° |
| 2026-05-04 12:25 | 69.45001 | -133.54958 | 29213 ft | 507 kts | 62° |
| 2026-05-04 12:25 | 69.48043 | -133.36888 | 29212 ft | 507 kts | 62° |
| 2026-05-04 12:26 | 69.51099 | -133.18593 | 29204 ft | 507 kts | 63° |
| 2026-05-04 12:26 | 69.54117 | -133.00362 | 29197 ft | 507 kts | 63° |
| 2026-05-04 12:27 | 69.57121 | -132.82047 | 29192 ft | 507 kts | 63° |
| 2026-05-04 12:27 | 69.60096 | -132.63753 | 29192 ft | 506 kts | 63° |
| 2026-05-04 12:28 | 69.63053 | -132.45401 | 29193 ft | 505 kts | 64° |
| 2026-05-04 12:28 | 69.65977 | -132.27086 | 29195 ft | 504 kts | 65° |
| 2026-05-04 12:29 | 69.68883 | -132.08711 | 29199 ft | 502 kts | 65° |
| 2026-05-04 12:29 | 69.71761 | -131.90315 | 29197 ft | 502 kts | 65° |
| 2026-05-04 12:30 | 69.74627 | -131.71832 | 29195 ft | 501 kts | 65° |
| 2026-05-04 12:30 | 69.77453 | -131.53427 | 29191 ft | 501 kts | 65° |
| 2026-05-04 12:31 | 69.80266 | -131.34927 | 29194 ft | 501 kts | 66° |
| 2026-05-04 12:31 | 69.83070 | -131.16325 | 29203 ft | 501 kts | 66° |
| 2026-05-04 12:32 | 69.87212 | -130.88525 | 29213 ft | 500 kts | 66° |
| 2026-05-04 12:33 | 69.89947 | -130.69954 | 29223 ft | 499 kts | 66° |
| 2026-05-04 12:33 | 69.92657 | -130.51379 | 29232 ft | 499 kts | 67° |
| 2026-05-04 12:34 | 69.95358 | -130.32721 | 29239 ft | 498 kts | 68° |
| 2026-05-04 12:34 | 69.98035 | -130.14000 | 29239 ft | 496 kts | 69° |
| 2026-05-04 12:35 | 69.99841 | -129.94722 | 29218 ft | 492 kts | 85° |
| 2026-05-04 12:35 | 70.00566 | -129.74838 | 29241 ft | 491 kts | 85° |
| 2026-05-04 12:36 | 70.01161 | -129.54915 | 29227 ft | 491 kts | 86° |
| 2026-05-04 12:36 | 70.01693 | -129.34894 | 29225 ft | 491 kts | 88° |
| 2026-05-04 12:37 | 70.02179 | -129.14981 | 29227 ft | 491 kts | 88° |
| 2026-05-04 12:37 | 70.02636 | -128.95052 | 29229 ft | 491 kts | 88° |
| 2026-05-04 12:38 | 70.03071 | -128.75070 | 29232 ft | 491 kts | 88° |
| 2026-05-04 12:38 | 70.03482 | -128.55054 | 29229 ft | 491 kts | 88° |
| 2026-05-04 12:39 | 70.03870 | -128.35132 | 29225 ft | 490 kts | 88° |
| 2026-05-04 12:39 | 70.04234 | -128.15172 | 29217 ft | 489 kts | 89° |
| 2026-05-04 12:40 | 70.04575 | -127.95166 | 29211 ft | 489 kts | 89° |
| 2026-05-04 12:40 | 70.04893 | -127.75275 | 29210 ft | 488 kts | 89° |
| 2026-05-04 12:41 | 70.05187 | -127.55419 | 29212 ft | 488 kts | 89° |
| 2026-05-04 12:41 | 70.05460 | -127.35469 | 29215 ft | 488 kts | 89° |
| 2026-05-04 12:42 | 70.05708 | -127.15547 | 29215 ft | 489 kts | 90° |
| 2026-05-04 12:42 | 70.05936 | -126.95535 | 29220 ft | 489 kts | 90° |
| 2026-05-04 12:43 | 70.06143 | -126.75532 | 29225 ft | 490 kts | 90° |
| 2026-05-04 12:43 | 70.06328 | -126.55559 | 29228 ft | 490 kts | 90° |
| 2026-05-04 12:44 | 70.06491 | -126.35541 | 29237 ft | 490 kts | 89° |
| 2026-05-04 12:44 | 70.06633 | -126.15478 | 29249 ft | 489 kts | 90° |
| 2026-05-04 12:45 | 70.06754 | -125.95560 | 29256 ft | 488 kts | 90° |
| 2026-05-04 12:45 | 70.06850 | -125.75705 | 29262 ft | 487 kts | 90° |
| 2026-05-04 12:46 | 70.06924 | -125.55711 | 29267 ft | 487 kts | 90° |
| 2026-05-04 12:46 | 70.06974 | -125.35861 | 29272 ft | 487 kts | 90° |
| 2026-05-04 12:47 | 70.07001 | -125.15885 | 29276 ft | 489 kts | 91° |
| 2026-05-04 12:47 | 70.07006 | -124.95894 | 29276 ft | 490 kts | 91° |
| 2026-05-04 12:48 | 70.06989 | -124.75758 | 29275 ft | 491 kts | 91° |
| 2026-05-04 12:48 | 70.06950 | -124.55645 | 29270 ft | 492 kts | 91° |
| 2026-05-04 12:49 | 70.06890 | -124.35589 | 29266 ft | 492 kts | 91° |
| 2026-05-04 12:49 | 70.06807 | -124.15495 | 29264 ft | 491 kts | 91° |
| 2026-05-04 12:50 | 70.06701 | -123.95325 | 29263 ft | 490 kts | 91° |
| 2026-05-04 12:50 | 70.06574 | -123.75324 | 29267 ft | 490 kts | 91° |
| 2026-05-04 12:51 | 70.06425 | -123.55336 | 29265 ft | 489 kts | 91° |
| 2026-05-04 12:51 | 70.06252 | -123.35408 | 29265 ft | 489 kts | 91° |
| 2026-05-04 12:52 | 70.06055 | -123.15383 | 29267 ft | 491 kts | 92° |
| 2026-05-04 12:52 | 70.05834 | -122.95315 | 29269 ft | 492 kts | 92° |
| 2026-05-04 12:53 | 70.05589 | -122.75176 | 29262 ft | 494 kts | 92° |
| 2026-05-04 12:53 | 70.05324 | -122.55007 | 29252 ft | 494 kts | 92° |
| 2026-05-04 12:54 | 70.05039 | -122.34882 | 29278 ft | 494 kts | 93° |
| 2026-05-04 12:54 | 70.04728 | -122.14638 | 29317 ft | 494 kts | 93° |
| 2026-05-04 12:55 | 70.04395 | -121.94469 | 29321 ft | 494 kts | 93° |
| 2026-05-04 12:55 | 70.04040 | -121.74299 | 29308 ft | 493 kts | 93° |
| 2026-05-04 12:56 | 70.03663 | -121.54261 | 29310 ft | 493 kts | 93° |
| 2026-05-04 12:56 | 70.03260 | -121.34167 | 29311 ft | 494 kts | 94° |
| 2026-05-04 12:57 | 70.02833 | -121.13991 | 29310 ft | 494 kts | 94° |
| 2026-05-04 12:57 | 70.02383 | -120.93853 | 29311 ft | 495 kts | 94° |
| 2026-05-04 12:58 | 70.01910 | -120.73741 | 29311 ft | 496 kts | 93° |
| 2026-05-04 12:58 | 70.01413 | -120.53453 | 29308 ft | 497 kts | 93° |
| 2026-05-04 12:59 | 70.00895 | -120.33259 | 29305 ft | 497 kts | 94° |
| 2026-05-04 12:59 | 70.00359 | -120.13079 | 29298 ft | 496 kts | 94° |
| 2026-05-04 13:00 | 70.00015 | -119.92832 | 29260 ft | 495 kts | 84° |
| 2026-05-04 13:00 | 70.01328 | -119.73151 | 29271 ft | 493 kts | 78° |
| 2026-05-04 13:01 | 70.02514 | -119.53311 | 29256 ft | 493 kts | 79° |
| 2026-05-04 13:01 | 70.03609 | -119.33548 | 29245 ft | 493 kts | 80° |
| 2026-05-04 13:02 | 70.04665 | -119.13602 | 29240 ft | 494 kts | 80° |
| 2026-05-04 13:02 | 70.05690 | -118.93578 | 29233 ft | 495 kts | 80° |
| 2026-05-04 13:03 | 70.06692 | -118.73462 | 29228 ft | 496 kts | 80° |
| 2026-05-04 13:03 | 70.07671 | -118.53372 | 29227 ft | 496 kts | 79° |
| 2026-05-04 13:04 | 70.08624 | -118.33353 | 29227 ft | 496 kts | 81° |
| 2026-05-04 13:04 | 70.09563 | -118.13179 | 29226 ft | 496 kts | 80° |
| 2026-05-04 13:05 | 70.10475 | -117.93057 | 29224 ft | 496 kts | 80° |
| 2026-05-04 13:05 | 70.11369 | -117.72791 | 29222 ft | 496 kts | 80° |
| 2026-05-04 13:06 | 70.12232 | -117.52657 | 29224 ft | 496 kts | 81° |
| 2026-05-04 13:06 | 70.13071 | -117.32476 | 29225 ft | 497 kts | 81° |
| 2026-05-04 13:07 | 70.13895 | -117.12138 | 29220 ft | 497 kts | 81° |
| 2026-05-04 13:07 | 70.14691 | -116.91856 | 29211 ft | 498 kts | 81° |
| 2026-05-04 13:08 | 70.15465 | -116.71542 | 29203 ft | 499 kts | 81° |
| 2026-05-04 13:08 | 70.16225 | -116.51077 | 29197 ft | 500 kts | 81° |
| 2026-05-04 13:09 | 70.16959 | -116.30688 | 29196 ft | 500 kts | 82° |
| 2026-05-04 13:09 | 70.17671 | -116.10213 | 29202 ft | 500 kts | 81° |
| 2026-05-04 13:10 | 70.18361 | -115.89690 | 29208 ft | 500 kts | 81° |
| 2026-05-04 13:10 | 70.19026 | -115.69200 | 29212 ft | 500 kts | 81° |
| 2026-05-04 13:11 | 70.19669 | -115.48638 | 29209 ft | 500 kts | 81° |
| 2026-05-04 13:11 | 70.20285 | -115.28091 | 29192 ft | 501 kts | 82° |
| 2026-05-04 13:12 | 70.20883 | -115.07407 | 29179 ft | 501 kts | 82° |
| 2026-05-04 13:12 | 70.21454 | -114.86839 | 29166 ft | 501 kts | 82° |
| 2026-05-04 13:13 | 70.22001 | -114.66230 | 29160 ft | 501 kts | 82° |
| 2026-05-04 13:13 | 70.22527 | -114.45596 | 29157 ft | 501 kts | 82° |
| 2026-05-04 13:14 | 70.23028 | -114.24936 | 29154 ft | 501 kts | 83° |
| 2026-05-04 13:14 | 70.23505 | -114.04317 | 29170 ft | 500 kts | 83° |
| 2026-05-04 13:15 | 70.23957 | -113.83702 | 29202 ft | 500 kts | 83° |
| 2026-05-04 13:15 | 70.24383 | -113.63108 | 29238 ft | 500 kts | 83° |
| 2026-05-04 13:16 | 70.24790 | -113.42333 | 29264 ft | 501 kts | 83° |
| 2026-05-04 13:16 | 70.25168 | -113.21775 | 29278 ft | 502 kts | 84° |
| 2026-05-04 13:17 | 70.25523 | -113.00984 | 29287 ft | 502 kts | 84° |
| 2026-05-04 13:17 | 70.25861 | -112.80160 | 29291 ft | 502 kts | 84° |
| 2026-05-04 13:18 | 70.26172 | -112.59396 | 29294 ft | 503 kts | 84° |
| 2026-05-04 13:18 | 70.26461 | -112.38602 | 29297 ft | 503 kts | 84° |
| 2026-05-04 13:19 | 70.26727 | -112.17847 | 29299 ft | 503 kts | 85° |
| 2026-05-04 13:19 | 70.26968 | -111.96986 | 29299 ft | 502 kts | 85° |
| 2026-05-04 13:20 | 70.27183 | -111.76283 | 29298 ft | 502 kts | 85° |
| 2026-05-04 13:20 | 70.27372 | -111.55476 | 29298 ft | 502 kts | 85° |
| 2026-05-04 13:21 | 70.27538 | -111.34710 | 29296 ft | 502 kts | 86° |
| 2026-05-04 13:21 | 70.27684 | -111.13945 | 29297 ft | 502 kts | 86° |
| 2026-05-04 13:22 | 70.27804 | -110.93024 | 29299 ft | 502 kts | 86° |
| 2026-05-04 13:22 | 70.27896 | -110.72343 | 29294 ft | 503 kts | 86° |
| 2026-05-04 13:23 | 70.27969 | -110.51496 | 29290 ft | 503 kts | 86° |
| 2026-05-04 13:23 | 70.28016 | -110.30586 | 29298 ft | 503 kts | 87° |
| 2026-05-04 13:24 | 70.28040 | -110.09811 | 29316 ft | 502 kts | 86° |
| 2026-05-04 13:24 | 70.28040 | -109.89023 | 29333 ft | 502 kts | 86° |
| 2026-05-04 13:25 | 70.27994 | -109.57831 | 29349 ft | 502 kts | 86° |
| 2026-05-04 13:25 | 70.27936 | -109.36983 | 29357 ft | 502 kts | 86° |
| 2026-05-04 13:26 | 70.27854 | -109.16155 | 29358 ft | 502 kts | 88° |
| 2026-05-04 13:26 | 70.27744 | -108.95206 | 29363 ft | 502 kts | 88° |
| 2026-05-04 13:27 | 70.27610 | -108.74416 | 29365 ft | 502 kts | 88° |
| 2026-05-04 13:27 | 70.27453 | -108.53659 | 29362 ft | 501 kts | 88° |
| 2026-05-04 13:28 | 70.27273 | -108.32895 | 29357 ft | 501 kts | 89° |
| 2026-05-04 13:28 | 70.27069 | -108.12145 | 29359 ft | 500 kts | 89° |
| 2026-05-04 13:29 | 70.26838 | -107.91386 | 29366 ft | 500 kts | 89° |
| 2026-05-04 13:29 | 70.26583 | -107.70579 | 29370 ft | 500 kts | 89° |
| 2026-05-04 13:30 | 70.26308 | -107.49847 | 29369 ft | 500 kts | 89° |
| 2026-05-04 13:30 | 70.26008 | -107.29055 | 29388 ft | 502 kts | 90° |
| 2026-05-04 13:31 | 70.25851 | -107.18767 | 29520 ft | 502 kts | 90° |
| 2026-05-04 13:31 | 70.25683 | -107.08211 | 29658 ft | 503 kts | 90° |
| 2026-05-04 13:31 | 70.25510 | -106.97847 | 29800 ft | 503 kts | 90° |
| 2026-05-04 13:31 | 70.25330 | -106.87367 | 29943 ft | 503 kts | 90° |
| 2026-05-04 13:32 | 70.25146 | -106.76940 | 30113 ft | 504 kts | 90° |
| 2026-05-04 13:32 | 70.24953 | -106.66388 | 30291 ft | 504 kts | 90° |
| 2026-05-04 13:32 | 70.24757 | -106.55956 | 30471 ft | 504 kts | 90° |
| 2026-05-04 13:32 | 70.24556 | -106.45626 | 30655 ft | 504 kts | 90° |
| 2026-05-04 13:33 | 70.24345 | -106.35136 | 30837 ft | 504 kts | 90° |
| 2026-05-04 13:33 | 70.24132 | -106.24756 | 31002 ft | 505 kts | 91° |
| 2026-05-04 13:33 | 70.23909 | -106.14244 | 31189 ft | 507 kts | 91° |
| 2026-05-04 13:33 | 70.23681 | -106.03798 | 31312 ft | 508 kts | 91° |
| 2026-05-04 13:34 | 70.23203 | -105.82660 | 31371 ft | 509 kts | 91° |
| 2026-05-04 13:34 | 70.22704 | -105.61655 | 31346 ft | 509 kts | 91° |
| 2026-05-04 13:35 | 70.21911 | -105.30154 | 31317 ft | 508 kts | 92° |
| 2026-05-04 13:36 | 70.21352 | -105.09230 | 31311 ft | 508 kts | 92° |
| 2026-05-04 13:36 | 70.20764 | -104.88278 | 31312 ft | 507 kts | 93° |
| 2026-05-04 13:37 | 70.20155 | -104.67351 | 31313 ft | 506 kts | 93° |
| 2026-05-04 13:37 | 70.19524 | -104.46530 | 31325 ft | 505 kts | 93° |
| 2026-05-04 13:38 | 70.18868 | -104.25710 | 31341 ft | 505 kts | 94° |
| 2026-05-04 13:38 | 70.18188 | -104.05010 | 31350 ft | 505 kts | 94° |
| 2026-05-04 13:39 | 70.17482 | -103.84203 | 31362 ft | 505 kts | 95° |
| 2026-05-04 13:39 | 70.16752 | -103.63490 | 31368 ft | 506 kts | 95° |
| 2026-05-04 13:40 | 70.16000 | -103.42733 | 31376 ft | 506 kts | 95° |
| 2026-05-04 13:40 | 70.15222 | -103.21879 | 31381 ft | 506 kts | 96° |
| 2026-05-04 13:41 | 70.14420 | -103.01075 | 31384 ft | 505 kts | 96° |
| 2026-05-04 13:41 | 70.13604 | -102.80508 | 31386 ft | 505 kts | 96° |
| 2026-05-04 13:42 | 70.12326 | -102.49483 | 31395 ft | 504 kts | 96° |
| 2026-05-04 13:42 | 70.11446 | -102.28882 | 31399 ft | 504 kts | 97° |
| 2026-05-04 13:43 | 70.10536 | -102.08216 | 31402 ft | 503 kts | 97° |
| 2026-05-04 13:43 | 70.09612 | -101.87781 | 31402 ft | 503 kts | 97° |
| 2026-05-04 13:44 | 70.08659 | -101.67242 | 31403 ft | 503 kts | 98° |
| 2026-05-04 13:44 | 70.07685 | -101.46767 | 31406 ft | 503 kts | 98° |
| 2026-05-04 13:45 | 70.06684 | -101.26203 | 31408 ft | 502 kts | 98° |
| 2026-05-04 13:45 | 70.05671 | -101.05884 | 31409 ft | 502 kts | 99° |
| 2026-05-04 13:46 | 70.04631 | -100.85452 | 31411 ft | 502 kts | 99° |
| 2026-05-04 13:46 | 70.03568 | -100.65094 | 31413 ft | 502 kts | 99° |
| 2026-05-04 13:47 | 70.02482 | -100.44737 | 31413 ft | 502 kts | 99° |
| 2026-05-04 13:47 | 70.01364 | -100.24247 | 31412 ft | 502 kts | 101° |
| 2026-05-04 13:48 | 70.00227 | -100.03996 | 31411 ft | 502 kts | 101° |
| 2026-05-04 13:48 | 69.99836 | -99.83493 | 31385 ft | 505 kts | 82° |
| 2026-05-04 13:49 | 70.01591 | -99.63495 | 31414 ft | 505 kts | 77° |
| 2026-05-04 13:49 | 70.02952 | -99.43246 | 31426 ft | 505 kts | 80° |
| 2026-05-04 13:50 | 70.04140 | -99.22663 | 31423 ft | 506 kts | 82° |
| 2026-05-04 13:50 | 70.05238 | -99.02124 | 31427 ft | 506 kts | 83° |
| 2026-05-04 13:51 | 70.06289 | -98.81559 | 31431 ft | 506 kts | 83° |
| 2026-05-04 13:51 | 70.07307 | -98.60949 | 31434 ft | 507 kts | 83° |
| 2026-05-04 13:52 | 70.08787 | -98.29990 | 31428 ft | 507 kts | 84° |
| 2026-05-04 13:53 | 70.09746 | -98.09201 | 31430 ft | 508 kts | 85° |
| 2026-05-04 13:53 | 70.10674 | -97.88441 | 31426 ft | 509 kts | 85° |
| 2026-05-04 13:54 | 70.12019 | -97.57198 | 31417 ft | 509 kts | 85° |
| 2026-05-04 13:55 | 70.13316 | -97.25926 | 31421 ft | 509 kts | 86° |
| 2026-05-04 13:55 | 70.14557 | -96.94733 | 31439 ft | 509 kts | 86° |
| 2026-05-04 13:56 | 70.15358 | -96.73855 | 31446 ft | 509 kts | 86° |
| 2026-05-04 13:57 | 70.16518 | -96.42439 | 31455 ft | 510 kts | 86° |
| 2026-05-04 13:58 | 70.17978 | -96.00432 | 31433 ft | 511 kts | 88° |
| 2026-05-04 13:58 | 70.18999 | -95.68874 | 31392 ft | 511 kts | 89° |
| 2026-05-04 13:59 | 70.19650 | -95.47776 | 31364 ft | 511 kts | 89° |
| 2026-05-04 14:00 | 70.20586 | -95.16078 | 31331 ft | 510 kts | 90° |
| 2026-05-04 14:00 | 70.21467 | -94.84388 | 31342 ft | 511 kts | 90° |
| 2026-05-04 14:01 | 70.22022 | -94.63234 | 31325 ft | 511 kts | 89° |
| 2026-05-04 14:02 | 70.22819 | -94.31410 | 31311 ft | 513 kts | 91° |
| 2026-05-04 14:02 | 70.23319 | -94.10070 | 31318 ft | 513 kts | 91° |
| 2026-05-04 14:03 | 70.23788 | -93.88854 | 31332 ft | 513 kts | 91° |
| 2026-05-04 14:03 | 70.24232 | -93.67529 | 31334 ft | 514 kts | 91° |
| 2026-05-04 14:04 | 70.24854 | -93.35570 | 31317 ft | 514 kts | 91° |
| 2026-05-04 14:04 | 70.25236 | -93.14242 | 31306 ft | 513 kts | 92° |
| 2026-05-04 14:05 | 70.25761 | -92.82290 | 31324 ft | 513 kts | 92° |
| 2026-05-04 14:06 | 70.26082 | -92.61018 | 31329 ft | 513 kts | 91° |
| 2026-05-04 14:06 | 70.26379 | -92.39741 | 31357 ft | 513 kts | 91° |
| 2026-05-04 14:07 | 70.26656 | -92.18357 | 31375 ft | 512 kts | 92° |
| 2026-05-04 14:07 | 70.26901 | -91.97058 | 31388 ft | 512 kts | 92° |
| 2026-05-04 14:08 | 70.27125 | -91.75807 | 31383 ft | 512 kts | 92° |
| 2026-05-04 14:08 | 70.27319 | -91.54507 | 31375 ft | 512 kts | 92° |
| 2026-05-04 14:09 | 70.27567 | -91.22523 | 31411 ft | 512 kts | 93° |
| 2026-05-04 14:10 | 70.27751 | -90.90667 | 31467 ft | 511 kts | 93° |
| 2026-05-04 14:10 | 70.27845 | -90.69448 | 31513 ft | 512 kts | 93° |
| 2026-05-04 14:11 | 70.27914 | -90.48062 | 31529 ft | 512 kts | 93° |
| 2026-05-04 14:11 | 70.27975 | -90.16210 | 31526 ft | 510 kts | 94° |
| 2026-05-04 14:12 | 70.27981 | -89.94906 | 31521 ft | 509 kts | 94° |
| 2026-05-04 14:13 | 70.27946 | -89.63217 | 31511 ft | 508 kts | 94° |
| 2026-05-04 14:13 | 70.27893 | -89.42038 | 31497 ft | 508 kts | 94° |
| 2026-05-04 14:14 | 70.27818 | -89.21030 | 31481 ft | 508 kts | 95° |
| 2026-05-04 14:14 | 70.27649 | -88.89288 | 31458 ft | 508 kts | 95° |
| 2026-05-04 14:15 | 70.27336 | -88.46980 | 31449 ft | 509 kts | 95° |
| 2026-05-04 14:16 | 70.27039 | -88.15080 | 31446 ft | 508 kts | 95° |
| 2026-05-04 14:17 | 70.26689 | -87.83469 | 31445 ft | 507 kts | 95° |
| 2026-05-04 14:18 | 70.26283 | -87.51899 | 31449 ft | 506 kts | 95° |
| 2026-05-04 14:19 | 70.25659 | -87.09804 | 31465 ft | 506 kts | 96° |
| 2026-05-04 14:19 | 70.25306 | -86.88763 | 31469 ft | 507 kts | 96° |
| 2026-05-04 14:20 | 70.24927 | -86.67658 | 31470 ft | 508 kts | 96° |
| 2026-05-04 14:20 | 70.24522 | -86.46482 | 31448 ft | 509 kts | 96° |
| 2026-05-04 14:21 | 70.23877 | -86.14863 | 31379 ft | 508 kts | 97° |
| 2026-05-04 14:21 | 70.23412 | -85.93676 | 31308 ft | 507 kts | 97° |
| 2026-05-04 14:22 | 70.22925 | -85.72786 | 31251 ft | 506 kts | 97° |
| 2026-05-04 14:22 | 70.22415 | -85.51749 | 31224 ft | 505 kts | 97° |
| 2026-05-04 14:23 | 70.21609 | -85.20451 | 31224 ft | 506 kts | 98° |
| 2026-05-04 14:24 | 70.21034 | -84.99436 | 31264 ft | 507 kts | 98° |
| 2026-05-04 14:24 | 70.20430 | -84.78394 | 31300 ft | 508 kts | 98° |
| 2026-05-04 14:25 | 70.19804 | -84.57370 | 31307 ft | 509 kts | 97° |
| 2026-05-04 14:25 | 70.18823 | -84.25827 | 31367 ft | 506 kts | 98° |
| 2026-05-04 14:26 | 70.18147 | -84.05023 | 31454 ft | 508 kts | 98° |
| 2026-05-04 14:26 | 70.17442 | -83.84103 | 31431 ft | 507 kts | 98° |
| 2026-05-04 14:27 | 70.16708 | -83.63124 | 31359 ft | 506 kts | 98° |
| 2026-05-04 14:27 | 70.15951 | -83.42259 | 31319 ft | 505 kts | 98° |
| 2026-05-04 14:28 | 70.15173 | -83.21434 | 31282 ft | 505 kts | 99° |
| 2026-05-04 14:28 | 70.14370 | -83.00635 | 31275 ft | 506 kts | 99° |
| 2026-05-04 14:29 | 70.12684 | -82.58942 | 31303 ft | 509 kts | 99° |
| 2026-05-04 14:30 | 70.11798 | -82.37991 | 31278 ft | 510 kts | 99° |
| 2026-05-04 14:31 | 70.10436 | -82.06792 | 31253 ft | 508 kts | 99° |
| 2026-05-04 14:32 | 70.08539 | -81.65305 | 31302 ft | 506 kts | 99° |
| 2026-05-04 14:32 | 70.07563 | -81.44642 | 31332 ft | 507 kts | 99° |
| 2026-05-04 14:33 | 70.06559 | -81.24010 | 31327 ft | 508 kts | 100° |
| 2026-05-04 14:33 | 70.05508 | -81.03068 | 31315 ft | 509 kts | 100° |
| 2026-05-04 14:34 | 70.04450 | -80.82450 | 31329 ft | 508 kts | 100° |
| 2026-05-04 14:34 | 70.03361 | -80.61689 | 31335 ft | 509 kts | 100° |
| 2026-05-04 14:35 | 70.02248 | -80.40954 | 31336 ft | 510 kts | 100° |
| 2026-05-04 14:35 | 70.01112 | -80.20276 | 31333 ft | 509 kts | 101° |
| 2026-05-04 14:36 | 69.99979 | -79.99668 | 31329 ft | 507 kts | 99° |
| 2026-05-04 14:36 | 69.99775 | -79.89351 | 31300 ft | 509 kts | 88° |
| 2026-05-04 14:36 | 70.00279 | -79.78934 | 31311 ft | 509 kts | 77° |
| 2026-05-04 14:37 | 70.01537 | -79.58437 | 31330 ft | 508 kts | 82° |
| 2026-05-04 14:37 | 70.02473 | -79.37693 | 31317 ft | 508 kts | 83° |
| 2026-05-04 14:38 | 70.03319 | -79.16805 | 31291 ft | 510 kts | 84° |
| 2026-05-04 14:38 | 70.04106 | -78.96003 | 31298 ft | 510 kts | 84° |
| 2026-05-04 14:39 | 70.04863 | -78.75142 | 31321 ft | 510 kts | 84° |
| 2026-05-04 14:39 | 70.05594 | -78.54291 | 31333 ft | 511 kts | 84° |
| 2026-05-04 14:40 | 70.06647 | -78.22868 | 31330 ft | 510 kts | 85° |
| 2026-05-04 14:40 | 70.07320 | -78.01860 | 31333 ft | 509 kts | 85° |
| 2026-05-04 14:41 | 70.07962 | -77.80975 | 31332 ft | 507 kts | 85° |
| 2026-05-04 14:42 | 70.09170 | -77.39233 | 31314 ft | 508 kts | 85° |
| 2026-05-04 14:42 | 70.09737 | -77.18358 | 31294 ft | 508 kts | 86° |
| 2026-05-04 14:43 | 70.10277 | -76.97356 | 31301 ft | 508 kts | 86° |
| 2026-05-04 14:43 | 70.10797 | -76.76292 | 31324 ft | 511 kts | 86° |
| 2026-05-04 14:44 | 70.11292 | -76.55307 | 31335 ft | 511 kts | 86° |
| 2026-05-04 14:44 | 70.11767 | -76.34232 | 31364 ft | 510 kts | 87° |
| 2026-05-04 14:45 | 70.12216 | -76.13165 | 31355 ft | 509 kts | 87° |
| 2026-05-04 14:45 | 70.12635 | -75.92216 | 31358 ft | 508 kts | 87° |
| 2026-05-04 14:46 | 70.13032 | -75.71201 | 31353 ft | 507 kts | 87° |
| 2026-05-04 14:46 | 70.13403 | -75.50241 | 31359 ft | 507 kts | 87° |
| 2026-05-04 14:47 | 70.13747 | -75.29311 | 31368 ft | 507 kts | 88° |
| 2026-05-04 14:47 | 70.14069 | -75.08232 | 31376 ft | 508 kts | 88° |
| 2026-05-04 14:48 | 70.14365 | -74.87283 | 31385 ft | 509 kts | 88° |
| 2026-05-04 14:48 | 70.14639 | -74.66167 | 31373 ft | 510 kts | 88° |
| 2026-05-04 14:49 | 70.14889 | -74.44954 | 31296 ft | 512 kts | 88° |
| 2026-05-04 14:49 | 70.15119 | -74.23851 | 31065 ft | 512 kts | 89° |
| 2026-05-04 14:50 | 70.15223 | -74.13229 | 30921 ft | 511 kts | 89° |
| 2026-05-04 14:50 | 70.15321 | -74.02693 | 30802 ft | 509 kts | 89° |
| 2026-05-04 14:50 | 70.15490 | -73.81620 | 30632 ft | 507 kts | 89° |
| 2026-05-04 14:51 | 70.15640 | -73.60533 | 30594 ft | 507 kts | 89° |
| 2026-05-04 14:51 | 70.15763 | -73.39562 | 30738 ft | 508 kts | 89° |
| 2026-05-04 14:52 | 70.15815 | -73.28999 | 30843 ft | 508 kts | 90° |
| 2026-05-04 14:52 | 70.15866 | -73.18370 | 30957 ft | 509 kts | 90° |
| 2026-05-04 14:52 | 70.15904 | -73.07938 | 31064 ft | 511 kts | 90° |
| 2026-05-04 14:52 | 70.15936 | -72.97248 | 31147 ft | 512 kts | 90° |
| 2026-05-04 14:53 | 70.15985 | -72.76120 | 31225 ft | 513 kts | 89° |
| 2026-05-04 14:53 | 70.16012 | -72.54735 | 31269 ft | 512 kts | 89° |
| 2026-05-04 14:54 | 70.16012 | -72.33495 | 31411 ft | 514 kts | 90° |
| 2026-05-04 14:54 | 70.16007 | -72.22938 | 31557 ft | 514 kts | 90° |
| 2026-05-04 14:54 | 70.15994 | -72.12271 | 31725 ft | 515 kts | 90° |
| 2026-05-04 14:55 | 70.15968 | -72.01588 | 31904 ft | 515 kts | 90° |
| 2026-05-04 14:55 | 70.15939 | -71.90913 | 32091 ft | 516 kts | 90° |
| 2026-05-04 14:55 | 70.15905 | -71.80178 | 32299 ft | 516 kts | 90° |
| 2026-05-04 14:55 | 70.15863 | -71.69516 | 32511 ft | 516 kts | 90° |
| 2026-05-04 14:56 | 70.15815 | -71.58842 | 32717 ft | 517 kts | 90° |
| 2026-05-04 14:56 | 70.15760 | -71.48190 | 32921 ft | 517 kts | 90° |
| 2026-05-04 14:56 | 70.15701 | -71.37447 | 33135 ft | 518 kts | 90° |
| 2026-05-04 14:56 | 70.15635 | -71.26636 | 33359 ft | 518 kts | 91° |
| 2026-05-04 14:57 | 70.15562 | -71.15889 | 33532 ft | 519 kts | 91° |
| 2026-05-04 14:57 | 70.15480 | -71.05177 | 33620 ft | 520 kts | 91° |
| 2026-05-04 14:57 | 70.15299 | -70.83624 | 33571 ft | 520 kts | 91° |
| 2026-05-04 14:58 | 70.15095 | -70.62093 | 33493 ft | 520 kts | 91° |
| 2026-05-04 14:58 | 70.14869 | -70.40750 | 33413 ft | 519 kts | 91° |
| 2026-05-04 14:59 | 70.14614 | -70.19141 | 33337 ft | 520 kts | 92° |
| 2026-05-04 15:00 | 70.14175 | -69.86890 | 33285 ft | 520 kts | 92° |
| 2026-05-04 15:00 | 70.13857 | -69.65544 | 33341 ft | 518 kts | 92° |
| 2026-05-04 15:01 | 70.13330 | -69.33569 | 33240 ft | 521 kts | 93° |
| 2026-05-04 15:01 | 70.12944 | -69.11997 | 33313 ft | 518 kts | 93° |
| 2026-05-04 15:02 | 70.12530 | -68.90580 | 33463 ft | 521 kts | 93° |
| 2026-05-04 15:02 | 70.12092 | -68.68981 | 33573 ft | 522 kts | 93° |
| 2026-05-04 15:03 | 70.11627 | -68.47368 | 33586 ft | 523 kts | 93° |
| 2026-05-04 15:03 | 70.11137 | -68.25781 | 33566 ft | 524 kts | 94° |
| 2026-05-04 15:04 | 70.10625 | -68.04269 | 33547 ft | 524 kts | 94° |
| 2026-05-04 15:04 | 70.10081 | -67.82668 | 33530 ft | 523 kts | 94° |
| 2026-05-04 15:05 | 70.09503 | -67.61068 | 33546 ft | 523 kts | 94° |
| 2026-05-04 15:05 | 70.08905 | -67.39573 | 33555 ft | 523 kts | 94° |
| 2026-05-04 15:06 | 70.08289 | -67.18014 | 33556 ft | 523 kts | 95° |
| 2026-05-04 15:07 | 70.07299 | -66.85625 | 33553 ft | 524 kts | 95° |
| 2026-05-04 15:07 | 70.06609 | -66.64061 | 33576 ft | 525 kts | 95° |
| 2026-05-04 15:08 | 70.05896 | -66.42551 | 33611 ft | 526 kts | 95° |
| 2026-05-04 15:08 | 70.05157 | -66.20918 | 33671 ft | 526 kts | 96° |
| 2026-05-04 15:09 | 70.04395 | -65.99422 | 33714 ft | 526 kts | 96° |
| 2026-05-04 15:09 | 70.03593 | -65.77718 | 33725 ft | 526 kts | 96° |
| 2026-05-04 15:10 | 70.02353 | -65.45524 | 33707 ft | 526 kts | 96° |
| 2026-05-04 15:11 | 70.01054 | -65.13218 | 33659 ft | 527 kts | 97° |
| 2026-05-04 15:11 | 70.00153 | -64.91711 | 33638 ft | 526 kts | 96° |
| 2026-05-04 15:12 | 69.99229 | -64.70257 | 33627 ft | 526 kts | 96° |
| 2026-05-04 15:12 | 69.98286 | -64.48857 | 33685 ft | 526 kts | 96° |
| 2026-05-04 15:13 | 69.97314 | -64.27452 | 33687 ft | 524 kts | 97° |
| 2026-05-04 15:13 | 69.96310 | -64.06118 | 33630 ft | 525 kts | 97° |
| 2026-05-04 15:14 | 69.95281 | -63.84761 | 33573 ft | 527 kts | 97° |
| 2026-05-04 15:14 | 69.94228 | -63.63326 | 33530 ft | 529 kts | 97° |
| 2026-05-04 15:15 | 69.93144 | -63.41901 | 33520 ft | 529 kts | 97° |
| 2026-05-04 15:15 | 69.92111 | -63.20367 | 33534 ft | 527 kts | 94° |
| 2026-05-04 15:16 | 69.91096 | -62.88266 | 33658 ft | 524 kts | 95° |
| 2026-05-04 15:17 | 69.90031 | -62.56294 | 33724 ft | 523 kts | 94° |
| 2026-05-04 15:17 | 69.88930 | -62.24419 | 33734 ft | 522 kts | 96° |
| 2026-05-04 15:18 | 69.88152 | -62.03083 | 33707 ft | 522 kts | 96° |
| 2026-05-04 15:19 | 69.86939 | -61.71220 | 33686 ft | 526 kts | 96° |
| 2026-05-04 15:19 | 69.85671 | -61.39056 | 33682 ft | 527 kts | 96° |
| 2026-05-04 15:20 | 69.84800 | -61.17751 | 33667 ft | 526 kts | 97° |
| 2026-05-04 15:20 | 69.83894 | -60.96439 | 33647 ft | 524 kts | 97° |
| 2026-05-04 15:21 | 69.82973 | -60.75312 | 33616 ft | 524 kts | 97° |
| 2026-05-04 15:22 | 69.81535 | -60.43560 | 33594 ft | 523 kts | 97° |
| 2026-05-04 15:22 | 69.80036 | -60.11755 | 33584 ft | 526 kts | 98° |
| 2026-05-04 15:23 | 69.79003 | -59.90506 | 33595 ft | 528 kts | 97° |
| 2026-05-04 15:23 | 69.77937 | -59.69076 | 33598 ft | 530 kts | 97° |
| 2026-05-04 15:24 | 69.75744 | -59.26508 | 33606 ft | 530 kts | 98° |
| 2026-05-04 15:25 | 69.74605 | -59.05253 | 33606 ft | 529 kts | 99° |
| 2026-05-04 15:26 | 69.72856 | -58.73496 | 33592 ft | 527 kts | 99° |
| 2026-05-04 15:26 | 69.71043 | -58.41739 | 33546 ft | 527 kts | 99° |
| 2026-05-04 15:27 | 69.69180 | -58.10202 | 33490 ft | 528 kts | 99° |
| 2026-05-04 15:28 | 69.67245 | -57.78513 | 33477 ft | 530 kts | 99° |
| 2026-05-04 15:29 | 69.65256 | -57.46809 | 33486 ft | 531 kts | 99° |
| 2026-05-04 15:30 | 69.60404 | -56.73175 | 33476 ft | 528 kts | 101° |
| 2026-05-04 15:31 | 69.58227 | -56.41846 | 33447 ft | 529 kts | 101° |
| 2026-05-04 15:32 | 69.54484 | -55.89691 | 33421 ft | 531 kts | 101° |
| 2026-05-04 15:34 | 69.50569 | -55.37423 | 33457 ft | 532 kts | 101° |
| 2026-05-04 15:34 | 69.48141 | -55.06112 | 33469 ft | 531 kts | 102° |
| 2026-05-04 15:35 | 69.45648 | -54.74955 | 33460 ft | 530 kts | 103° |
| 2026-05-04 15:36 | 69.43127 | -54.44019 | 33422 ft | 531 kts | 102° |
| 2026-05-04 15:36 | 69.41402 | -54.23304 | 33420 ft | 531 kts | 103° |
| 2026-05-04 15:37 | 69.39657 | -54.02670 | 33388 ft | 532 kts | 103° |
| 2026-05-04 15:37 | 69.37883 | -53.81988 | 33388 ft | 533 kts | 103° |
| 2026-05-04 15:38 | 69.36079 | -53.61344 | 33361 ft | 534 kts | 103° |
| 2026-05-04 15:38 | 69.34253 | -53.40677 | 33333 ft | 534 kts | 103° |
| 2026-05-04 15:39 | 69.32403 | -53.20011 | 33345 ft | 533 kts | 104° |
| 2026-05-04 15:40 | 69.29583 | -52.89233 | 33368 ft | 532 kts | 104° |
| 2026-05-04 15:40 | 69.27671 | -52.68801 | 33393 ft | 532 kts | 104° |
| 2026-05-04 15:41 | 69.25742 | -52.48428 | 33400 ft | 532 kts | 104° |
| 2026-05-04 15:41 | 69.23783 | -52.28025 | 33407 ft | 532 kts | 105° |
| 2026-05-04 15:42 | 69.21800 | -52.07653 | 33406 ft | 532 kts | 105° |
| 2026-05-04 15:42 | 69.19802 | -51.87416 | 33408 ft | 532 kts | 105° |
| 2026-05-04 15:43 | 69.17772 | -51.67113 | 33419 ft | 533 kts | 105° |
| 2026-05-04 15:43 | 69.15715 | -51.46817 | 33432 ft | 534 kts | 105° |
| 2026-05-04 15:44 | 69.13632 | -51.26540 | 33464 ft | 535 kts | 106° |
| 2026-05-04 15:44 | 69.11517 | -51.06203 | 33469 ft | 535 kts | 107° |
| 2026-05-04 15:45 | 69.09392 | -50.86039 | 33424 ft | 535 kts | 107° |
| 2026-05-04 15:45 | 69.07224 | -50.65803 | 33390 ft | 534 kts | 107° |
| 2026-05-04 15:46 | 69.05051 | -50.45757 | 33370 ft | 533 kts | 107° |
| 2026-05-04 15:46 | 69.02848 | -50.25688 | 33378 ft | 533 kts | 108° |
| 2026-05-04 15:47 | 69.00610 | -50.05647 | 33388 ft | 534 kts | 110° |
| 2026-05-04 15:47 | 68.97709 | -49.86280 | 33348 ft | 534 kts | 113° |
| 2026-05-04 15:48 | 68.94786 | -49.67102 | 33249 ft | 536 kts | 114° |
| 2026-05-04 15:48 | 68.90255 | -49.38328 | 33046 ft | 536 kts | 114° |
| 2026-05-04 15:49 | 68.87188 | -49.19232 | 32912 ft | 536 kts | 115° |
| 2026-05-04 15:49 | 68.84131 | -49.00423 | 32730 ft | 537 kts | 115° |
| 2026-05-04 15:50 | 68.82533 | -48.90650 | 32621 ft | 536 kts | 115° |
| 2026-05-04 15:50 | 68.80968 | -48.81139 | 32539 ft | 536 kts | 115° |
| 2026-05-04 15:50 | 68.77818 | -48.62128 | 32437 ft | 537 kts | 115° |
| 2026-05-04 15:51 | 68.74658 | -48.43245 | 32366 ft | 537 kts | 115° |
| 2026-05-04 15:51 | 68.71455 | -48.24237 | 32323 ft | 539 kts | 116° |
| 2026-05-04 15:52 | 68.68245 | -48.05403 | 32287 ft | 540 kts | 117° |
| 2026-05-04 15:52 | 68.65002 | -47.86543 | 32251 ft | 541 kts | 117° |
| 2026-05-04 15:53 | 68.61716 | -47.67659 | 32210 ft | 542 kts | 117° |
| 2026-05-04 15:53 | 68.58428 | -47.48888 | 32129 ft | 542 kts | 117° |
| 2026-05-04 15:54 | 68.55094 | -47.30043 | 32077 ft | 542 kts | 118° |
| 2026-05-04 15:54 | 68.51748 | -47.11337 | 32044 ft | 542 kts | 118° |
| 2026-05-04 15:55 | 68.48395 | -46.92728 | 32025 ft | 542 kts | 118° |
| 2026-05-04 15:55 | 68.45001 | -46.74057 | 32021 ft | 543 kts | 118° |
| 2026-05-04 15:56 | 68.41579 | -46.55417 | 32010 ft | 543 kts | 118° |
| 2026-05-04 15:56 | 68.38138 | -46.36815 | 32020 ft | 545 kts | 118° |
| 2026-05-04 15:57 | 68.34690 | -46.18328 | 32006 ft | 546 kts | 119° |
| 2026-05-04 15:57 | 68.31175 | -45.99715 | 31998 ft | 548 kts | 120° |
| 2026-05-04 15:58 | 68.27632 | -45.81117 | 31973 ft | 551 kts | 120° |
| 2026-05-04 15:58 | 68.24049 | -45.62450 | 31923 ft | 552 kts | 120° |
| 2026-05-04 15:59 | 68.20451 | -45.43915 | 31887 ft | 552 kts | 120° |
| 2026-05-04 15:59 | 68.16826 | -45.25368 | 31836 ft | 551 kts | 121° |
| 2026-05-04 16:00 | 68.13203 | -45.06987 | 31822 ft | 550 kts | 121° |
| 2026-05-04 16:00 | 68.09547 | -44.88617 | 31817 ft | 550 kts | 121° |
| 2026-05-04 16:01 | 68.05899 | -44.70429 | 31823 ft | 549 kts | 121° |
| 2026-05-04 16:01 | 68.02210 | -44.52191 | 31846 ft | 550 kts | 121° |
| 2026-05-04 16:02 | 67.98514 | -44.34080 | 31856 ft | 551 kts | 122° |
| 2026-05-04 16:03 | 67.92896 | -44.06820 | 31862 ft | 553 kts | 122° |
| 2026-05-04 16:03 | 67.89128 | -43.88739 | 31771 ft | 554 kts | 122° |
| 2026-05-04 16:04 | 67.85310 | -43.70597 | 31719 ft | 554 kts | 122° |
| 2026-05-04 16:04 | 67.79554 | -43.43576 | 31718 ft | 554 kts | 122° |
| 2026-05-04 16:05 | 67.75710 | -43.25689 | 31717 ft | 554 kts | 123° |
| 2026-05-04 16:06 | 67.69900 | -42.98899 | 31719 ft | 551 kts | 123° |
| 2026-05-04 16:07 | 67.62151 | -42.63696 | 31686 ft | 549 kts | 123° |
| 2026-05-04 16:08 | 67.54344 | -42.28752 | 31648 ft | 548 kts | 124° |
| 2026-05-04 16:09 | 67.44466 | -41.85508 | 31671 ft | 548 kts | 124° |
| 2026-05-04 16:10 | 67.36495 | -41.51096 | 31706 ft | 549 kts | 124° |
| 2026-05-04 16:11 | 67.28451 | -41.16962 | 31720 ft | 547 kts | 125° |
| 2026-05-04 16:12 | 67.16314 | -40.66456 | 31733 ft | 545 kts | 125° |
| 2026-05-04 16:13 | 67.08153 | -40.33143 | 31743 ft | 544 kts | 126° |
| 2026-05-04 16:14 | 66.99978 | -40.00031 | 31785 ft | 544 kts | 123° |
| 2026-05-04 16:16 | 66.92812 | -39.54416 | 31827 ft | 548 kts | 113° |
| 2026-05-04 16:17 | 66.85622 | -39.09356 | 31850 ft | 546 kts | 114° |
| 2026-05-04 16:18 | 66.79736 | -38.73341 | 31911 ft | 546 kts | 114° |
| 2026-05-04 16:19 | 66.72256 | -38.28563 | 31996 ft | 544 kts | 115° |
| 2026-05-04 16:20 | 66.67725 | -38.01901 | 32127 ft | 543 kts | 115° |
| 2026-05-04 16:20 | 66.64674 | -37.84161 | 32182 ft | 543 kts | 115° |
| 2026-05-04 16:22 | 66.57004 | -37.40212 | 32130 ft | 541 kts | 115° |
| 2026-05-04 16:23 | 66.47644 | -36.87833 | 32205 ft | 542 kts | 116° |
| 2026-05-04 16:24 | 66.41306 | -36.53188 | 32513 ft | 543 kts | 116° |
| 2026-05-04 16:25 | 66.38089 | -36.35820 | 32490 ft | 541 kts | 116° |
| 2026-05-04 16:26 | 66.31657 | -36.01566 | 32804 ft | 539 kts | 117° |
| 2026-05-04 16:26 | 66.26808 | -35.76064 | 32879 ft | 532 kts | 117° |
| 2026-05-04 16:27 | 66.23576 | -35.59271 | 33177 ft | 536 kts | 117° |
| 2026-05-04 16:28 | 66.18658 | -35.33961 | 33373 ft | 537 kts | 118° |
| 2026-05-04 16:29 | 66.07031 | -34.75262 | 33365 ft | 537 kts | 118° |
| 2026-05-04 16:31 | 65.98569 | -34.33624 | 33399 ft | 539 kts | 119° |
| 2026-05-04 16:32 | 65.88278 | -33.84077 | 33397 ft | 537 kts | 119° |
| 2026-05-04 16:33 | 65.81332 | -33.51263 | 33363 ft | 538 kts | 119° |
| 2026-05-04 16:34 | 65.76097 | -33.26856 | 33359 ft | 536 kts | 120° |
| 2026-05-04 16:35 | 65.65499 | -32.78331 | 33364 ft | 535 kts | 120° |
| 2026-05-04 16:36 | 65.60164 | -32.54246 | 33359 ft | 535 kts | 120° |
| 2026-05-04 16:37 | 65.54771 | -32.30220 | 33343 ft | 537 kts | 121° |
| 2026-05-04 16:38 | 65.47501 | -31.98251 | 33339 ft | 539 kts | 121° |
| 2026-05-04 16:39 | 65.38282 | -31.58409 | 33341 ft | 539 kts | 121° |
| 2026-05-04 16:40 | 65.30853 | -31.26791 | 33336 ft | 537 kts | 122° |
| 2026-05-04 16:41 | 65.21497 | -30.87658 | 33333 ft | 536 kts | 122° |
| 2026-05-04 16:43 | 65.12045 | -30.48787 | 33324 ft | 536 kts | 122° |
| 2026-05-04 16:43 | 65.06338 | -30.25667 | 33318 ft | 536 kts | 123° |
| 2026-05-04 16:45 | 64.95019 | -29.79317 | 33326 ft | 536 kts | 121° |
| 2026-05-04 16:46 | 64.85668 | -29.40775 | 33315 ft | 536 kts | 121° |
| 2026-05-04 16:47 | 64.78133 | -29.10118 | 33314 ft | 535 kts | 122° |
| 2026-05-04 16:48 | 64.70551 | -28.79733 | 33313 ft | 535 kts | 122° |
| 2026-05-04 16:49 | 64.62891 | -28.49461 | 33315 ft | 534 kts | 122° |
| 2026-05-04 16:50 | 64.55206 | -28.19465 | 33315 ft | 532 kts | 123° |
| 2026-05-04 16:51 | 64.49399 | -27.97132 | 33318 ft | 531 kts | 123° |
| 2026-05-04 16:52 | 64.41672 | -27.67675 | 33308 ft | 530 kts | 123° |
| 2026-05-04 16:53 | 64.35822 | -27.45610 | 33298 ft | 530 kts | 123° |
| 2026-05-04 16:54 | 64.27956 | -27.16347 | 33284 ft | 531 kts | 124° |
| 2026-05-04 16:55 | 64.16004 | -26.72586 | 33287 ft | 534 kts | 124° |
| 2026-05-04 16:56 | 64.05909 | -26.36294 | 33298 ft | 535 kts | 123° |
| 2026-05-04 16:57 | 63.99812 | -26.14643 | 33296 ft | 534 kts | 124° |
| 2026-05-04 16:58 | 63.91649 | -25.85990 | 33294 ft | 533 kts | 124° |
| 2026-05-04 17:00 | 63.79310 | -25.43354 | 33277 ft | 533 kts | 124° |
| 2026-05-04 17:01 | 63.68932 | -25.08062 | 33280 ft | 531 kts | 126° |
| 2026-05-04 17:02 | 63.60598 | -24.80147 | 33275 ft | 531 kts | 126° |
| 2026-05-04 17:03 | 63.54288 | -24.59245 | 33269 ft | 531 kts | 126° |
| 2026-05-04 17:03 | 63.47961 | -24.38478 | 33262 ft | 532 kts | 126° |
| 2026-05-04 17:04 | 63.39447 | -24.10845 | 33257 ft | 532 kts | 127° |
| 2026-05-04 17:05 | 63.30865 | -23.83322 | 33264 ft | 532 kts | 127° |
| 2026-05-04 17:06 | 63.24416 | -23.62863 | 33270 ft | 532 kts | 127° |
| 2026-05-04 17:07 | 63.18668 | -23.44754 | 33271 ft | 532 kts | 126° |
| 2026-05-04 17:07 | 63.13622 | -23.28970 | 33267 ft | 531 kts | 127° |
| 2026-05-04 17:08 | 63.07079 | -23.08718 | 33273 ft | 530 kts | 128° |
| 2026-05-04 17:09 | 63.02723 | -22.95325 | 33274 ft | 530 kts | 127° |
| 2026-05-04 17:09 | 62.98359 | -22.81981 | 33274 ft | 530 kts | 127° |
| 2026-05-04 17:10 | 62.87420 | -22.48838 | 33269 ft | 530 kts | 127° |
| 2026-05-04 17:11 | 62.82986 | -22.35564 | 33274 ft | 530 kts | 127° |
| 2026-05-04 17:12 | 62.76372 | -22.15848 | 33273 ft | 529 kts | 128° |
| 2026-05-04 17:13 | 62.65324 | -21.83362 | 33272 ft | 528 kts | 128° |
| 2026-05-04 17:14 | 62.56434 | -21.57542 | 33267 ft | 528 kts | 128° |
| 2026-05-04 17:15 | 62.49740 | -21.38287 | 33235 ft | 528 kts | 128° |
| 2026-05-04 17:16 | 62.40760 | -21.12731 | 33210 ft | 526 kts | 129° |
| 2026-05-04 17:17 | 62.31731 | -20.87323 | 33215 ft | 528 kts | 129° |
| 2026-05-04 17:17 | 62.24890 | -20.68252 | 33447 ft | 535 kts | 129° |
| 2026-05-04 17:18 | 62.22574 | -20.61832 | 33612 ft | 536 kts | 129° |